Alice, Texas
Current Conditions -  °F | °C
As of 10:53 AM on Thursday 27 Nov 2014 (Local Time) from KALI Reporting Station
Clear Clear  
Wind Chill: 66°   Ceiling: Unl
Heat Index: 66°   Visibility: 10mi
Dew Point: 48°   Wind: 7mph
Humidity: 52%   Direction: 60°ENE
Pressure: 30.46"   Gusts: NA
Location:  27.75°N, 98.06°W
Report Text: KALI 271653Z AUTO 06006KT 10SM CLR 19/09 A3046 RMK AO2 SLP312 T01890089 $
Loading
Personal Weather Stations






























Interactive Weather Map New forecast layout! Learn more

10-Day Weather Forecast

Advertisements
Track Severe Weather on mobile